ポンペイ島 の空港の天気 - METARとTAF

ポンペイ国際空港 ( PTPN / PNI ) - ミクロネシア連邦 ポンペイ島
飛行場実況気象(Metar)
観測時間10/18 14:50 +11 (10/18 03:50 UTC)
風向・風速静穏 0m/s
視程10km以上
天気現象
全天の4割程度の雲 雲底高度 550m
全天の8割程度の雲 雲底高度 3960m
全天を覆う雲 雲底高度 9140m
気温29℃
湿度84%
気圧1007hPa
METARPTPN 180350Z 00000KT 15SM SCT018TCU BKN130 OVC300 29/26 A2974 RMK N LAST
過去の天気等 Google飛行場航空写真 Wunderground天気予報

過去48時間のMETAR

飛行場予報(TAF)
発表時間: 10/18 10:36 +11 (10/17 23:36 UTC)
予報対象時間: 18日11時 +11 ~ 19日11時 +11
風向・風速不定 3m/s
視程10km以上
全天の4割程度の雲 雲底高度 550m
PTPN 172336Z 1800/1824 VRB05KT P6SM SCT018